sensor_id;sensor_type;location;lat;lon;timestamp;temperature;humidity
22192;DHT22;11261;52.456;10.850;2023-04-28T00:01:12;7.10;99.90
22192;DHT22;11261;52.456;10.850;2023-04-28T00:03:41;7.10;99.90
22192;DHT22;11261;52.456;10.850;2023-04-28T00:06:10;7.00;99.90
22192;DHT22;11261;52.456;10.850;2023-04-28T00:08:38;7.00;99.90
22192;DHT22;11261;52.456;10.850;2023-04-28T00:11:08;7.00;99.90
22192;DHT22;11261;52.456;10.850;2023-04-28T00:13:37;6.90;99.90
22192;DHT22;11261;52.456;10.850;2023-04-28T00:16:06;6.80;99.90
22192;DHT22;11261;52.456;10.850;2023-04-28T00:18:36;6.80;99.90
22192;DHT22;11261;52.456;10.850;2023-04-28T00:21:04;6.60;99.90
22192;DHT22;11261;52.456;10.850;2023-04-28T00:23:32;6.50;99.90
22192;DHT22;11261;52.456;10.850;2023-04-28T00:26:01;6.60;99.90
22192;DHT22;11261;52.456;10.850;2023-04-28T00:28:29;6.50;99.90
22192;DHT22;11261;52.456;10.850;2023-04-28T00:31:01;6.40;99.90
22192;DHT22;11261;52.456;10.850;2023-04-28T00:33:29;6.50;99.90
22192;DHT22;11261;52.456;10.850;2023-04-28T00:36:02;6.50;99.90
22192;DHT22;11261;52.456;10.850;2023-04-28T00:38:30;6.50;99.90
22192;DHT22;11261;52.456;10.850;2023-04-28T00:40:58;6.50;99.90
22192;DHT22;11261;52.456;10.850;2023-04-28T00:43:26;6.50;99.90
22192;DHT22;11261;52.456;10.850;2023-04-28T00:45:55;6.40;99.90
22192;DHT22;11261;52.456;10.850;2023-04-28T00:48:23;6.40;99.90
22192;DHT22;11261;52.456;10.850;2023-04-28T00:50:51;6.40;99.90
22192;DHT22;11261;52.456;10.850;2023-04-28T00:53:21;6.50;99.90
22192;DHT22;11261;52.456;10.850;2023-04-28T00:55:51;6.50;99.90
22192;DHT22;11261;52.456;10.850;2023-04-28T00:58:19;6.40;99.90
22192;DHT22;11261;52.456;10.850;2023-04-28T01:00:48;6.50;99.90
22192;DHT22;11261;52.456;10.850;2023-04-28T01:03:16;6.50;99.90
22192;DHT22;11261;52.456;10.850;2023-04-28T01:05:45;6.50;99.90
22192;DHT22;11261;52.456;10.850;2023-04-28T01:08:14;6.50;99.90
22192;DHT22;11261;52.456;10.850;2023-04-28T01:10:44;6.40;99.90
22192;DHT22;11261;52.456;10.850;2023-04-28T01:13:12;6.40;99.90
22192;DHT22;11261;52.456;10.850;2023-04-28T01:15:41;6.40;99.90
22192;DHT22;11261;52.456;10.850;2023-04-28T01:18:09;6.40;99.90
22192;DHT22;11261;52.456;10.850;2023-04-28T01:20:37;6.30;99.90
22192;DHT22;11261;52.456;10.850;2023-04-28T01:23:10;6.30;99.90
22192;DHT22;11261;52.456;10.850;2023-04-28T01:25:41;6.30;99.90
22192;DHT22;11261;52.456;10.850;2023-04-28T01:28:10;6.30;99.90
22192;DHT22;11261;52.456;10.850;2023-04-28T01:30:38;6.20;99.90
22192;DHT22;11261;52.456;10.850;2023-04-28T01:33:06;6.20;99.90
22192;DHT22;11261;52.456;10.850;2023-04-28T01:35:35;6.20;99.90
22192;DHT22;11261;52.456;10.850;2023-04-28T01:38:03;6.30;99.90
22192;DHT22;11261;52.456;10.850;2023-04-28T01:40:31;6.30;99.90
22192;DHT22;11261;52.456;10.850;2023-04-28T01:43:00;6.30;99.90
22192;DHT22;11261;52.456;10.850;2023-04-28T01:45:29;6.30;99.90
22192;DHT22;11261;52.456;10.850;2023-04-28T01:47:57;6.30;99.90
22192;DHT22;11261;52.456;10.850;2023-04-28T01:50:25;6.30;99.90
22192;DHT22;11261;52.456;10.850;2023-04-28T01:52:54;6.30;99.90
22192;DHT22;11261;52.456;10.850;2023-04-28T01:55:22;6.30;99.90
22192;DHT22;11261;52.456;10.850;2023-04-28T01:57:50;6.30;99.90
22192;DHT22;11261;52.456;10.850;2023-04-28T02:00:20;6.20;99.90
22192;DHT22;11261;52.456;10.850;2023-04-28T02:02:49;6.10;99.90
22192;DHT22;11261;52.456;10.850;2023-04-28T02:05:17;6.00;99.90
22192;DHT22;11261;52.456;10.850;2023-04-28T02:07:45;5.90;99.90
22192;DHT22;11261;52.456;10.850;2023-04-28T02:10:13;5.80;99.90
22192;DHT22;11261;52.456;10.850;2023-04-28T02:12:41;5.70;99.90
22192;DHT22;11261;52.456;10.850;2023-04-28T02:15:10;5.80;99.90
22192;DHT22;11261;52.456;10.850;2023-04-28T02:17:40;5.90;99.90
22192;DHT22;11261;52.456;10.850;2023-04-28T02:20:09;5.80;99.90
22192;DHT22;11261;52.456;10.850;2023-04-28T02:22:37;5.50;99.90
22192;DHT22;11261;52.456;10.850;2023-04-28T02:25:06;5.50;99.90
22192;DHT22;11261;52.456;10.850;2023-04-28T02:27:35;5.30;99.90
22192;DHT22;11261;52.456;10.850;2023-04-28T02:30:06;5.20;99.90
22192;DHT22;11261;52.456;10.850;2023-04-28T02:32:35;5.20;99.90
22192;DHT22;11261;52.456;10.850;2023-04-28T02:35:05;5.30;99.90
22192;DHT22;11261;52.456;10.850;2023-04-28T02:37:34;5.30;99.90
22192;DHT22;11261;52.456;10.850;2023-04-28T02:40:02;5.30;99.90
22192;DHT22;11261;52.456;10.850;2023-04-28T02:42:30;5.30;99.90
22192;DHT22;11261;52.456;10.850;2023-04-28T02:44:58;5.30;99.90
22192;DHT22;11261;52.456;10.850;2023-04-28T02:47:26;5.20;99.90
22192;DHT22;11261;52.456;10.850;2023-04-28T02:49:55;5.30;99.90
22192;DHT22;11261;52.456;10.850;2023-04-28T02:52:24;5.20;99.90
22192;DHT22;11261;52.456;10.850;2023-04-28T02:54:52;5.20;99.90
22192;DHT22;11261;52.456;10.850;2023-04-28T02:57:23;5.20;99.90
22192;DHT22;11261;52.456;10.850;2023-04-28T02:59:51;5.20;99.90
22192;DHT22;11261;52.456;10.850;2023-04-28T03:02:20;5.00;99.90
22192;DHT22;11261;52.456;10.850;2023-04-28T03:04:49;4.90;99.90
22192;DHT22;11261;52.456;10.850;2023-04-28T03:07:17;4.90;99.90
22192;DHT22;11261;52.456;10.850;2023-04-28T03:09:47;4.80;99.90
22192;DHT22;11261;52.456;10.850;2023-04-28T03:12:15;4.80;99.90
22192;DHT22;11261;52.456;10.850;2023-04-28T03:14:44;4.80;99.90
22192;DHT22;11261;52.456;10.850;2023-04-28T03:17:12;4.80;99.90
22192;DHT22;11261;52.456;10.850;2023-04-28T03:19:40;4.70;99.90
22192;DHT22;11261;52.456;10.850;2023-04-28T03:22:09;4.70;99.90
22192;DHT22;11261;52.456;10.850;2023-04-28T03:24:37;4.60;99.90
22192;DHT22;11261;52.456;10.850;2023-04-28T03:27:07;4.60;99.90
22192;DHT22;11261;52.456;10.850;2023-04-28T03:29:35;4.60;99.90
22192;DHT22;11261;52.456;10.850;2023-04-28T03:32:04;4.60;99.90
22192;DHT22;11261;52.456;10.850;2023-04-28T03:34:33;4.60;99.90
22192;DHT22;11261;52.456;10.850;2023-04-28T03:37:02;4.60;99.90
22192;DHT22;11261;52.456;10.850;2023-04-28T03:39:30;4.60;99.90
22192;DHT22;11261;52.456;10.850;2023-04-28T03:41:58;4.60;99.90
22192;DHT22;11261;52.456;10.850;2023-04-28T03:44:28;4.60;99.90
22192;DHT22;11261;52.456;10.850;2023-04-28T03:46:56;4.70;99.90
22192;DHT22;11261;52.456;10.850;2023-04-28T03:49:24;4.70;99.90
22192;DHT22;11261;52.456;10.850;2023-04-28T03:51:53;4.80;99.90
22192;DHT22;11261;52.456;10.850;2023-04-28T03:54:21;4.80;99.90
22192;DHT22;11261;52.456;10.850;2023-04-28T03:56:49;4.70;99.90
22192;DHT22;11261;52.456;10.850;2023-04-28T03:59:17;4.70;99.90
22192;DHT22;11261;52.456;10.850;2023-04-28T04:01:47;4.60;99.90
22192;DHT22;11261;52.456;10.850;2023-04-28T04:04:15;4.60;99.90
22192;DHT22;11261;52.456;10.850;2023-04-28T04:06:44;4.60;99.90
22192;DHT22;11261;52.456;10.850;2023-04-28T04:09:13;4.60;99.90
22192;DHT22;11261;52.456;10.850;2023-04-28T04:11:41;4.60;99.90
22192;DHT22;11261;52.456;10.850;2023-04-28T04:14:09;4.70;99.90
22192;DHT22;11261;52.456;10.850;2023-04-28T04:16:38;4.60;99.90
22192;DHT22;11261;52.456;10.850;2023-04-28T04:19:08;4.70;99.90
22192;DHT22;11261;52.456;10.850;2023-04-28T04:21:36;4.70;99.90
22192;DHT22;11261;52.456;10.850;2023-04-28T04:24:05;5.00;99.90
22192;DHT22;11261;52.456;10.850;2023-04-28T04:26:34;4.80;99.90
22192;DHT22;11261;52.456;10.850;2023-04-28T04:29:02;4.80;99.90
22192;DHT22;11261;52.456;10.850;2023-04-28T04:31:30;5.00;99.90
22192;DHT22;11261;52.456;10.850;2023-04-28T04:33:58;5.10;99.90
22192;DHT22;11261;52.456;10.850;2023-04-28T04:36:29;5.20;99.90
22192;DHT22;11261;52.456;10.850;2023-04-28T04:38:59;5.10;99.90
22192;DHT22;11261;52.456;10.850;2023-04-28T04:41:27;5.10;99.90
22192;DHT22;11261;52.456;10.850;2023-04-28T04:43:55;5.20;99.90
22192;DHT22;11261;52.456;10.850;2023-04-28T04:46:23;5.10;99.90
22192;DHT22;11261;52.456;10.850;2023-04-28T04:48:52;5.20;99.90
22192;DHT22;11261;52.456;10.850;2023-04-28T04:51:20;5.10;99.90
22192;DHT22;11261;52.456;10.850;2023-04-28T04:53:49;5.00;99.90
22192;DHT22;11261;52.456;10.850;2023-04-28T04:56:17;5.00;99.90
22192;DHT22;11261;52.456;10.850;2023-04-28T04:58:46;4.90;99.90
22192;DHT22;11261;52.456;10.850;2023-04-28T05:01:14;4.90;99.90
22192;DHT22;11261;52.456;10.850;2023-04-28T05:03:43;4.90;99.90
22192;DHT22;11261;52.456;10.850;2023-04-28T05:06:11;5.00;99.90
22192;DHT22;11261;52.456;10.850;2023-04-28T05:08:39;5.00;99.90
22192;DHT22;11261;52.456;10.850;2023-04-28T05:11:09;5.00;99.90
22192;DHT22;11261;52.456;10.850;2023-04-28T05:13:37;5.00;99.90
22192;DHT22;11261;52.456;10.850;2023-04-28T05:16:06;5.10;99.90
22192;DHT22;11261;52.456;10.850;2023-04-28T05:18:34;5.20;99.90
22192;DHT22;11261;52.456;10.850;2023-04-28T05:21:03;5.30;99.90
22192;DHT22;11261;52.456;10.850;2023-04-28T05:23:31;5.40;99.90
22192;DHT22;11261;52.456;10.850;2023-04-28T05:25:59;5.40;99.90
22192;DHT22;11261;52.456;10.850;2023-04-28T05:28:30;5.80;99.90
22192;DHT22;11261;52.456;10.850;2023-04-28T05:30:58;5.80;99.90
22192;DHT22;11261;52.456;10.850;2023-04-28T05:33:26;5.70;99.90
22192;DHT22;11261;52.456;10.850;2023-04-28T05:35:55;5.70;99.90
22192;DHT22;11261;52.456;10.850;2023-04-28T05:38:23;6.10;99.90
22192;DHT22;11261;52.456;10.850;2023-04-28T05:40:51;6.20;99.90
22192;DHT22;11261;52.456;10.850;2023-04-28T05:43:20;6.40;99.90
22192;DHT22;11261;52.456;10.850;2023-04-28T05:45:49;6.60;99.90
22192;DHT22;11261;52.456;10.850;2023-04-28T05:48:18;6.50;99.90
22192;DHT22;11261;52.456;10.850;2023-04-28T05:50:46;6.50;99.90
22192;DHT22;11261;52.456;10.850;2023-04-28T05:53:14;6.60;99.90
22192;DHT22;11261;52.456;10.850;2023-04-28T05:55:43;6.80;99.90
22192;DHT22;11261;52.456;10.850;2023-04-28T05:58:11;6.80;99.90
22192;DHT22;11261;52.456;10.850;2023-04-28T06:00:39;6.90;99.90
22192;DHT22;11261;52.456;10.850;2023-04-28T06:03:09;7.10;99.90
22192;DHT22;11261;52.456;10.850;2023-04-28T06:05:40;7.10;99.90
22192;DHT22;11261;52.456;10.850;2023-04-28T06:08:09;7.00;99.90
22192;DHT22;11261;52.456;10.850;2023-04-28T06:10:37;7.20;99.90
22192;DHT22;11261;52.456;10.850;2023-04-28T06:13:05;7.20;99.90
22192;DHT22;11261;52.456;10.850;2023-04-28T06:15:35;7.10;99.90
22192;DHT22;11261;52.456;10.850;2023-04-28T06:18:03;7.20;99.90
22192;DHT22;11261;52.456;10.850;2023-04-28T06:20:34;7.70;99.90
22192;DHT22;11261;52.456;10.850;2023-04-28T06:23:03;7.90;99.90
22192;DHT22;11261;52.456;10.850;2023-04-28T06:25:31;8.10;99.90
22192;DHT22;11261;52.456;10.850;2023-04-28T06:27:59;8.10;99.90
22192;DHT22;11261;52.456;10.850;2023-04-28T06:30:27;8.80;99.90
22192;DHT22;11261;52.456;10.850;2023-04-28T06:32:55;8.70;99.90
22192;DHT22;11261;52.456;10.850;2023-04-28T06:35:24;8.70;99.90
22192;DHT22;11261;52.456;10.850;2023-04-28T06:37:54;9.20;99.90
22192;DHT22;11261;52.456;10.850;2023-04-28T06:40:22;9.30;99.90
22192;DHT22;11261;52.456;10.850;2023-04-28T06:42:51;9.50;99.40
22192;DHT22;11261;52.456;10.850;2023-04-28T06:45:19;9.70;98.90
22192;DHT22;11261;52.456;10.850;2023-04-28T06:47:48;9.70;99.00
22192;DHT22;11261;52.456;10.850;2023-04-28T06:50:17;10.30;98.20
22192;DHT22;11261;52.456;10.850;2023-04-28T06:52:45;10.40;97.10
22192;DHT22;11261;52.456;10.850;2023-04-28T06:55:15;10.40;96.90
22192;DHT22;11261;52.456;10.850;2023-04-28T06:57:44;10.60;96.50
22192;DHT22;11261;52.456;10.850;2023-04-28T07:00:13;10.80;96.20
22192;DHT22;11261;52.456;10.850;2023-04-28T07:02:42;10.90;96.20
22192;DHT22;11261;52.456;10.850;2023-04-28T07:05:10;11.10;94.60
22192;DHT22;11261;52.456;10.850;2023-04-28T07:07:41;11.70;95.20
22192;DHT22;11261;52.456;10.850;2023-04-28T07:10:10;11.40;95.00
22192;DHT22;11261;52.456;10.850;2023-04-28T07:12:40;11.10;94.50
22192;DHT22;11261;52.456;10.850;2023-04-28T07:15:09;11.30;94.70
22192;DHT22;11261;52.456;10.850;2023-04-28T07:17:37;11.40;94.10
22192;DHT22;11261;52.456;10.850;2023-04-28T07:20:07;12.10;93.60
22192;DHT22;11261;52.456;10.850;2023-04-28T07:22:35;11.80;93.60
22192;DHT22;11261;52.456;10.850;2023-04-28T07:25:04;12.20;93.20
22192;DHT22;11261;52.456;10.850;2023-04-28T07:27:32;12.10;92.30
22192;DHT22;11261;52.456;10.850;2023-04-28T07:30:03;11.80;92.00
22192;DHT22;11261;52.456;10.850;2023-04-28T07:32:51;12.50;92.30
22192;DHT22;11261;52.456;10.850;2023-04-28T07:35:19;12.70;91.60
22192;DHT22;11261;52.456;10.850;2023-04-28T07:37:47;12.60;90.80
22192;DHT22;11261;52.456;10.850;2023-04-28T07:40:16;12.40;90.90
22192;DHT22;11261;52.456;10.850;2023-04-28T07:42:45;12.60;90.80
22192;DHT22;11261;52.456;10.850;2023-04-28T07:45:15;12.70;90.30
22192;DHT22;11261;52.456;10.850;2023-04-28T07:47:43;12.60;90.30
22192;DHT22;11261;52.456;10.850;2023-04-28T07:50:12;13.20;90.10
22192;DHT22;11261;52.456;10.850;2023-04-28T07:52:40;12.70;88.90
22192;DHT22;11261;52.456;10.850;2023-04-28T07:55:08;12.50;88.20
22192;DHT22;11261;52.456;10.850;2023-04-28T07:57:37;12.40;89.70
22192;DHT22;11261;52.456;10.850;2023-04-28T08:00:08;12.70;90.00
22192;DHT22;11261;52.456;10.850;2023-04-28T08:02:39;12.70;89.30
22192;DHT22;11261;52.456;10.850;2023-04-28T08:05:08;12.80;88.80
22192;DHT22;11261;52.456;10.850;2023-04-28T08:07:36;12.70;89.70
22192;DHT22;11261;52.456;10.850;2023-04-28T08:10:06;12.60;90.00
22192;DHT22;11261;52.456;10.850;2023-04-28T08:12:34;12.50;90.00
22192;DHT22;11261;52.456;10.850;2023-04-28T08:15:03;12.30;90.00
22192;DHT22;11261;52.456;10.850;2023-04-28T08:17:32;12.40;90.00
22192;DHT22;11261;52.456;10.850;2023-04-28T08:20:01;12.40;90.20
22192;DHT22;11261;52.456;10.850;2023-04-28T08:22:32;12.30;90.10
22192;DHT22;11261;52.456;10.850;2023-04-28T08:25:00;12.50;90.30
22192;DHT22;11261;52.456;10.850;2023-04-28T08:27:29;12.60;90.40
22192;DHT22;11261;52.456;10.850;2023-04-28T08:29:59;12.40;90.20
22192;DHT22;11261;52.456;10.850;2023-04-28T08:32:28;12.70;90.60
22192;DHT22;11261;52.456;10.850;2023-04-28T08:34:56;12.40;90.40
22192;DHT22;11261;52.456;10.850;2023-04-28T08:37:27;12.50;90.50
22192;DHT22;11261;52.456;10.850;2023-04-28T08:39:55;12.70;90.80
22192;DHT22;11261;52.456;10.850;2023-04-28T08:42:28;12.70;90.90
22192;DHT22;11261;52.456;10.850;2023-04-28T08:44:57;12.90;90.80
22192;DHT22;11261;52.456;10.850;2023-04-28T08:47:32;12.80;91.30
22192;DHT22;11261;52.456;10.850;2023-04-28T08:50:05;12.90;90.50
22192;DHT22;11261;52.456;10.850;2023-04-28T08:52:36;12.80;90.80
22192;DHT22;11261;52.456;10.850;2023-04-28T08:55:06;12.90;90.70
22192;DHT22;11261;52.456;10.850;2023-04-28T08:57:37;13.20;91.00
22192;DHT22;11261;52.456;10.850;2023-04-28T09:00:08;13.40;91.10
22192;DHT22;11261;52.456;10.850;2023-04-28T09:02:37;13.30;90.50
22192;DHT22;11261;52.456;10.850;2023-04-28T09:05:09;13.60;90.80
22192;DHT22;11261;52.456;10.850;2023-04-28T09:07:42;13.60;90.80
22192;DHT22;11261;52.456;10.850;2023-04-28T09:10:16;14.00;90.80
22192;DHT22;11261;52.456;10.850;2023-04-28T09:12:45;13.80;90.40
22192;DHT22;11261;52.456;10.850;2023-04-28T09:15:28;13.60;90.20
22192;DHT22;11261;52.456;10.850;2023-04-28T09:17:59;13.60;91.40
22192;DHT22;11261;52.456;10.850;2023-04-28T09:20:29;13.40;90.20
22192;DHT22;11261;52.456;10.850;2023-04-28T09:23:14;13.30;90.40
22192;DHT22;11261;52.456;10.850;2023-04-28T09:25:57;13.50;90.30
22192;DHT22;11261;52.456;10.850;2023-04-28T09:28:26;13.60;90.10
22192;DHT22;11261;52.456;10.850;2023-04-28T09:30:54;13.30;90.40
22192;DHT22;11261;52.456;10.850;2023-04-28T09:33:23;13.70;91.00
22192;DHT22;11261;52.456;10.850;2023-04-28T09:35:52;13.80;90.30
22192;DHT22;11261;52.456;10.850;2023-04-28T09:38:22;14.10;90.50
22192;DHT22;11261;52.456;10.850;2023-04-28T09:40:52;14.10;89.20
22192;DHT22;11261;52.456;10.850;2023-04-28T09:43:25;14.50;89.50
22192;DHT22;11261;52.456;10.850;2023-04-28T09:45:55;14.50;89.00
22192;DHT22;11261;52.456;10.850;2023-04-28T09:48:31;15.40;88.50
22192;DHT22;11261;52.456;10.850;2023-04-28T09:51:01;15.40;86.80
22192;DHT22;11261;52.456;10.850;2023-04-28T09:53:32;14.50;87.80
22192;DHT22;11261;52.456;10.850;2023-04-28T09:56:02;14.50;89.30
22192;DHT22;11261;52.456;10.850;2023-04-28T09:58:33;14.90;89.90
22192;DHT22;11261;52.456;10.850;2023-04-28T10:01:02;14.70;89.60
22192;DHT22;11261;52.456;10.850;2023-04-28T10:03:34;14.70;88.80
22192;DHT22;11261;52.456;10.850;2023-04-28T10:06:03;14.30;90.10
22192;DHT22;11261;52.456;10.850;2023-04-28T10:08:33;14.10;90.00
22192;DHT22;11261;52.456;10.850;2023-04-28T10:11:02;14.20;90.20
22192;DHT22;11261;52.456;10.850;2023-04-28T10:13:30;14.10;90.20
22192;DHT22;11261;52.456;10.850;2023-04-28T10:15:59;14.10;90.30
22192;DHT22;11261;52.456;10.850;2023-04-28T10:18:28;14.10;90.20
22192;DHT22;11261;52.456;10.850;2023-04-28T10:20:59;14.00;90.30
22192;DHT22;11261;52.456;10.850;2023-04-28T10:24:02;14.00;90.30
22192;DHT22;11261;52.456;10.850;2023-04-28T10:29:37;14.20;91.30
22192;DHT22;11261;52.456;10.850;2023-04-28T10:32:23;13.90;90.70
22192;DHT22;11261;52.456;10.850;2023-04-28T10:35:40;14.00;91.20
22192;DHT22;11261;52.456;10.850;2023-04-28T10:38:10;14.50;90.90
22192;DHT22;11261;52.456;10.850;2023-04-28T10:40:41;14.30;90.90
22192;DHT22;11261;52.456;10.850;2023-04-28T10:43:12;14.00;91.30
22192;DHT22;11261;52.456;10.850;2023-04-28T10:46:01;14.00;91.60
22192;DHT22;11261;52.456;10.850;2023-04-28T10:48:54;14.40;91.80
22192;DHT22;11261;52.456;10.850;2023-04-28T10:51:30;14.10;91.30
22192;DHT22;11261;52.456;10.850;2023-04-28T10:54:18;13.90;91.80
22192;DHT22;11261;52.456;10.850;2023-04-28T10:57:17;14.00;92.00
22192;DHT22;11261;52.456;10.850;2023-04-28T10:59:49;14.00;91.80
22192;DHT22;11261;52.456;10.850;2023-04-28T11:02:47;13.90;91.50
22192;DHT22;11261;52.456;10.850;2023-04-28T11:05:17;14.10;91.50
22192;DHT22;11261;52.456;10.850;2023-04-28T11:11:14;14.00;91.70
22192;DHT22;11261;52.456;10.850;2023-04-28T11:16:49;13.90;91.70
22192;DHT22;11261;52.456;10.850;2023-04-28T11:19:19;13.90;92.50
22192;DHT22;11261;52.456;10.850;2023-04-28T11:21:48;14.10;92.30
22192;DHT22;11261;52.456;10.850;2023-04-28T11:24:17;14.10;92.60
22192;DHT22;11261;52.456;10.850;2023-04-28T11:26:45;13.90;92.20
22192;DHT22;11261;52.456;10.850;2023-04-28T11:29:14;14.10;92.70
22192;DHT22;11261;52.456;10.850;2023-04-28T11:31:50;14.20;93.00
22192;DHT22;11261;52.456;10.850;2023-04-28T11:34:19;14.30;93.50
22192;DHT22;11261;52.456;10.850;2023-04-28T11:36:48;14.30;93.60
22192;DHT22;11261;52.456;10.850;2023-04-28T11:39:25;14.20;93.90
22192;DHT22;11261;52.456;10.850;2023-04-28T11:41:54;14.10;94.00
22192;DHT22;11261;52.456;10.850;2023-04-28T11:44:24;14.10;94.10
22192;DHT22;11261;52.456;10.850;2023-04-28T11:46:56;13.80;93.50
22192;DHT22;11261;52.456;10.850;2023-04-28T11:49:28;13.90;94.10
22192;DHT22;11261;52.456;10.850;2023-04-28T11:51:57;14.10;93.30
22192;DHT22;11261;52.456;10.850;2023-04-28T11:54:27;14.00;93.80
22192;DHT22;11261;52.456;10.850;2023-04-28T11:56:56;14.10;93.40
22192;DHT22;11261;52.456;10.850;2023-04-28T11:59:26;13.90;93.00
22192;DHT22;11261;52.456;10.850;2023-04-28T12:01:57;13.80;93.40
22192;DHT22;11261;52.456;10.850;2023-04-28T12:04:27;13.80;93.50
22192;DHT22;11261;52.456;10.850;2023-04-28T12:07:01;13.80;94.00
22192;DHT22;11261;52.456;10.850;2023-04-28T12:09:30;13.70;93.70
22192;DHT22;11261;52.456;10.850;2023-04-28T12:12:00;13.80;94.10
22192;DHT22;11261;52.456;10.850;2023-04-28T12:14:30;13.80;94.60
22192;DHT22;11261;52.456;10.850;2023-04-28T12:17:03;13.80;94.20
22192;DHT22;11261;52.456;10.850;2023-04-28T12:19:42;13.80;94.30
22192;DHT22;11261;52.456;10.850;2023-04-28T12:22:11;13.90;94.00
22192;DHT22;11261;52.456;10.850;2023-04-28T12:24:43;13.70;93.90
22192;DHT22;11261;52.456;10.850;2023-04-28T12:27:16;13.90;94.80
22192;DHT22;11261;52.456;10.850;2023-04-28T12:29:47;13.90;94.80
22192;DHT22;11261;52.456;10.850;2023-04-28T12:32:18;13.90;95.00
22192;DHT22;11261;52.456;10.850;2023-04-28T12:34:46;13.60;95.00
22192;DHT22;11261;52.456;10.850;2023-04-28T12:37:16;13.50;95.30
22192;DHT22;11261;52.456;10.850;2023-04-28T12:39:44;13.80;95.70
22192;DHT22;11261;52.456;10.850;2023-04-28T12:42:13;14.00;94.80
22192;DHT22;11261;52.456;10.850;2023-04-28T12:44:41;13.60;95.50
22192;DHT22;11261;52.456;10.850;2023-04-28T12:47:09;13.80;96.40
22192;DHT22;11261;52.456;10.850;2023-04-28T12:49:39;13.60;96.50
22192;DHT22;11261;52.456;10.850;2023-04-28T12:52:07;13.50;97.00
22192;DHT22;11261;52.456;10.850;2023-04-28T12:54:36;13.50;96.70
22192;DHT22;11261;52.456;10.850;2023-04-28T12:57:04;13.20;97.10
22192;DHT22;11261;52.456;10.850;2023-04-28T12:59:33;13.40;97.80
22192;DHT22;11261;52.456;10.850;2023-04-28T13:02:01;13.50;97.20
22192;DHT22;11261;52.456;10.850;2023-04-28T13:04:29;13.50;97.50
22192;DHT22;11261;52.456;10.850;2023-04-28T13:07:00;13.20;97.40
22192;DHT22;11261;52.456;10.850;2023-04-28T13:09:28;13.20;97.70
22192;DHT22;11261;52.456;10.850;2023-04-28T13:11:57;13.20;98.10
22192;DHT22;11261;52.456;10.850;2023-04-28T13:14:25;13.20;98.30
22192;DHT22;11261;52.456;10.850;2023-04-28T13:16:55;13.20;98.30
22192;DHT22;11261;52.456;10.850;2023-04-28T13:19:23;13.10;98.50
22192;DHT22;11261;52.456;10.850;2023-04-28T13:21:51;13.20;98.90
22192;DHT22;11261;52.456;10.850;2023-04-28T13:24:21;13.00;99.10
22192;DHT22;11261;52.456;10.850;2023-04-28T13:26:50;13.20;98.90
22192;DHT22;11261;52.456;10.850;2023-04-28T13:29:18;13.00;98.90
22192;DHT22;11261;52.456;10.850;2023-04-28T13:31:48;13.00;98.90
22192;DHT22;11261;52.456;10.850;2023-04-28T13:34:16;13.00;99.40
22192;DHT22;11261;52.456;10.850;2023-04-28T13:36:44;12.90;99.70
22192;DHT22;11261;52.456;10.850;2023-04-28T13:39:13;13.00;99.90
22192;DHT22;11261;52.456;10.850;2023-04-28T13:41:43;13.00;99.90
22192;DHT22;11261;52.456;10.850;2023-04-28T13:44:11;13.00;99.90
22192;DHT22;11261;52.456;10.850;2023-04-28T13:46:39;13.00;99.90
22192;DHT22;11261;52.456;10.850;2023-04-28T13:49:08;13.00;99.90
22192;DHT22;11261;52.456;10.850;2023-04-28T13:51:37;12.90;99.90
22192;DHT22;11261;52.456;10.850;2023-04-28T13:54:05;12.90;99.90
22192;DHT22;11261;52.456;10.850;2023-04-28T13:56:36;13.00;99.90
22192;DHT22;11261;52.456;10.850;2023-04-28T13:59:06;12.80;99.90
22192;DHT22;11261;52.456;10.850;2023-04-28T14:01:34;12.80;99.90
22192;DHT22;11261;52.456;10.850;2023-04-28T14:04:02;12.90;99.90
22192;DHT22;11261;52.456;10.850;2023-04-28T14:06:30;12.90;99.90
22192;DHT22;11261;52.456;10.850;2023-04-28T14:09:00;12.90;99.90
22192;DHT22;11261;52.456;10.850;2023-04-28T14:11:29;12.90;99.90
22192;DHT22;11261;52.456;10.850;2023-04-28T14:13:57;12.90;99.90
22192;DHT22;11261;52.456;10.850;2023-04-28T14:16:27;13.00;99.90
22192;DHT22;11261;52.456;10.850;2023-04-28T14:18:57;13.00;99.90
22192;DHT22;11261;52.456;10.850;2023-04-28T14:21:26;13.00;99.90
22192;DHT22;11261;52.456;10.850;2023-04-28T14:23:54;13.00;99.90
22192;DHT22;11261;52.456;10.850;2023-04-28T14:26:22;13.00;99.90
22192;DHT22;11261;52.456;10.850;2023-04-28T14:28:51;13.10;99.90
22192;DHT22;11261;52.456;10.850;2023-04-28T14:31:19;13.00;99.90
22192;DHT22;11261;52.456;10.850;2023-04-28T14:33:48;13.00;99.90
22192;DHT22;11261;52.456;10.850;2023-04-28T14:36:17;13.10;99.90
22192;DHT22;11261;52.456;10.850;2023-04-28T14:38:45;13.20;99.90
22192;DHT22;11261;52.456;10.850;2023-04-28T14:41:13;13.10;99.90
22192;DHT22;11261;52.456;10.850;2023-04-28T14:43:41;13.10;99.90
22192;DHT22;11261;52.456;10.850;2023-04-28T14:46:10;13.10;99.90
22192;DHT22;11261;52.456;10.850;2023-04-28T14:48:39;13.10;99.90
22192;DHT22;11261;52.456;10.850;2023-04-28T14:51:08;13.10;99.90
22192;DHT22;11261;52.456;10.850;2023-04-28T14:53:37;13.30;99.90
22192;DHT22;11261;52.456;10.850;2023-04-28T14:56:06;13.30;99.90
22192;DHT22;11261;52.456;10.850;2023-04-28T14:58:44;13.30;99.90
22192;DHT22;11261;52.456;10.850;2023-04-28T15:01:13;13.30;99.90
22192;DHT22;11261;52.456;10.850;2023-04-28T15:03:41;13.40;99.90
22192;DHT22;11261;52.456;10.850;2023-04-28T15:06:11;13.40;99.90
22192;DHT22;11261;52.456;10.850;2023-04-28T15:08:40;13.50;99.90
22192;DHT22;11261;52.456;10.850;2023-04-28T15:11:08;13.40;99.90
22192;DHT22;11261;52.456;10.850;2023-04-28T15:13:36;13.30;99.90
22192;DHT22;11261;52.456;10.850;2023-04-28T15:16:08;13.50;99.90
22192;DHT22;11261;52.456;10.850;2023-04-28T15:18:36;13.50;99.90
22192;DHT22;11261;52.456;10.850;2023-04-28T15:21:05;13.40;99.90
22192;DHT22;11261;52.456;10.850;2023-04-28T15:23:35;13.50;99.90
22192;DHT22;11261;52.456;10.850;2023-04-28T15:26:04;13.60;99.90
22192;DHT22;11261;52.456;10.850;2023-04-28T15:28:32;13.70;99.90
22192;DHT22;11261;52.456;10.850;2023-04-28T15:31:01;13.80;99.90
22192;DHT22;11261;52.456;10.850;2023-04-28T15:33:31;13.60;99.90
22192;DHT22;11261;52.456;10.850;2023-04-28T15:35:59;13.50;99.90
22192;DHT22;11261;52.456;10.850;2023-04-28T15:38:28;13.40;99.90
22192;DHT22;11261;52.456;10.850;2023-04-28T15:40:58;13.20;99.90
22192;DHT22;11261;52.456;10.850;2023-04-28T15:43:27;13.30;99.90
22192;DHT22;11261;52.456;10.850;2023-04-28T15:45:55;13.30;99.90
22192;DHT22;11261;52.456;10.850;2023-04-28T15:48:24;13.30;99.90